TimeEST,TemperatureF,Dew PointF,Humidity,Sea Level PressureIn,VisibilityMPH,Wind Direction,Wind SpeedMPH,Gust SpeedMPH,PrecipitationIn,Events,Conditions,WindDirDegrees,DateUTC
12:15 AM,55.4,53.6,94,30.29,5.0,Calm,Calm,-,0.00,,Clear,0,2012-12-03 05:15:00
12:35 AM,53.6,53.6,100,30.29,2.5,Calm,Calm,-,0.00,,Clear,0,2012-12-03 05:35:00
12:55 AM,53.6,51.8,94,30.29,0.2,Calm,Calm,-,0.00,Fog,Fog,0,2012-12-03 05:55:00
1:15 AM,53.6,53.6,100,30.29,5.0,Calm,Calm,-,0.00,,Clear,0,2012-12-03 06:15:00
1:35 AM,53.6,51.8,94,30.30,5.0,Calm,Calm,-,0.00,,Clear,0,2012-12-03 06:35:00
1:55 AM,53.6,51.8,94,30.30,8.0,Calm,Calm,-,0.00,,Clear,0,2012-12-03 06:55:00
2:15 AM,53.6,51.8,94,30.30,5.0,Calm,Calm,-,0.00,,Clear,0,2012-12-03 07:15:00
2:35 AM,53.6,51.8,94,30.30,5.0,Calm,Calm,-,0.00,,Clear,0,2012-12-03 07:35:00
2:55 AM,53.6,51.8,94,30.30,5.0,Calm,Calm,-,0.00,,Clear,0,2012-12-03 07:55:00
3:15 AM,53.6,51.8,94,30.30,5.0,Calm,Calm,-,0.00,,Clear,0,2012-12-03 08:15:00
3:35 AM,53.6,50.0,88,30.30,8.0,Calm,Calm,-,0.00,,Clear,0,2012-12-03 08:35:00
3:55 AM,51.8,48.2,88,30.30,0.5,Calm,Calm,-,0.00,Fog,Fog,0,2012-12-03 08:55:00
4:15 AM,51.8,50.0,94,30.30,6.0,Calm,Calm,-,0.00,,Clear,0,2012-12-03 09:15:00
4:35 AM,51.8,50.0,94,30.30,2.5,Calm,Calm,-,0.00,,Scattered Clouds,0,2012-12-03 09:35:00
4:55 AM,53.6,51.8,94,30.30,0.2,Calm,Calm,-,0.00,Fog,Fog,0,2012-12-03 09:55:00
5:15 AM,51.8,51.8,100,30.30,1.0,Calm,Calm,-,0.00,,Overcast,0,2012-12-03 10:15:00
5:55 AM,51.8,50.0,94,30.31,0.5,Calm,Calm,-,0.00,Fog,Fog,0,2012-12-03 10:55:00
6:15 AM,51.8,48.2,88,30.31,0.2,Calm,Calm,-,0.00,Fog,Fog,0,2012-12-03 11:15:00
6:35 AM,51.8,50.0,94,30.31,0.2,Calm,Calm,-,0.00,Fog,Fog,0,2012-12-03 11:35:00
6:55 AM,53.6,51.8,94,30.32,0.2,Calm,Calm,-,0.00,Fog,Fog,0,2012-12-03 11:55:00
7:15 AM,53.6,51.8,94,30.32,0.2,Calm,Calm,-,0.00,Fog,Fog,0,2012-12-03 12:15:00
7:35 AM,53.6,51.8,94,30.33,0.2,Calm,Calm,-,0.00,Fog,Fog,0,2012-12-03 12:35:00
7:55 AM,53.6,53.6,100,30.33,0.2,Calm,Calm,-,0.00,Fog,Fog,0,2012-12-03 12:55:00
8:15 AM,55.4,53.6,94,30.34,0.2,Calm,Calm,-,0.00,Fog,Fog,0,2012-12-03 13:15:00
8:35 AM,55.4,55.4,100,30.34,0.2,Calm,Calm,-,0.00,Fog,Fog,0,2012-12-03 13:35:00
8:55 AM,57.2,57.2,100,30.34,0.2,Calm,Calm,-,0.00,Fog,Fog,0,2012-12-03 13:55:00
9:15 AM,60.8,59.0,94,30.34,4.0,Calm,Calm,-,0.00,,Mostly Cloudy,0,2012-12-03 14:15:00
9:35 AM,62.6,60.8,94,30.34,9.0,Calm,Calm,-,0.00,,Partly Cloudy,0,2012-12-03 14:35:00
9:55 AM,64.4,62.6,94,30.34,10.0,Calm,Calm,-,0.00,,Clear,0,2012-12-03 14:55:00
10:15 AM,69.8,62.6,78,30.34,10.0,West,4.6,-,0.00,,Clear,280,2012-12-03 15:15:00
10:35 AM,71.6,60.8,69,30.34,10.0,WNW,3.5,-,0.00,,Clear,300,2012-12-03 15:35:00
10:55 AM,71.6,60.8,69,30.33,10.0,NNW,4.6,-,0.00,,Clear,330,2012-12-03 15:55:00
11:15 AM,73.4,60.8,65,30.33,10.0,Calm,Calm,-,0.00,,Clear,0,2012-12-03 16:15:00
11:35 AM,75.2,60.8,61,30.32,10.0,Calm,Calm,-,0.00,,Clear,0,2012-12-03 16:35:00
11:55 AM,75.2,60.8,61,30.31,10.0,Calm,Calm,-,0.00,,Clear,0,2012-12-03 16:55:00
12:15 PM,73.4,59.0,61,30.31,10.0,WSW,3.5,-,0.00,,Clear,240,2012-12-03 17:15:00
12:55 PM,73.4,60.8,65,30.29,10.0,South,4.6,-,0.00,,Partly Cloudy,170,2012-12-03 17:55:00
1:15 PM,73.4,60.8,65,30.28,10.0,South,4.6,-,0.00,,Scattered Clouds,180,2012-12-03 18:15:00
1:35 PM,69.8,60.8,73,30.28,10.0,SSE,4.6,-,0.00,,Scattered Clouds,150,2012-12-03 18:35:00
1:55 PM,71.6,60.8,69,30.27,10.0,South,8.1,-,0.00,,Mostly Cloudy,170,2012-12-03 18:55:00
2:15 PM,71.6,62.6,73,30.27,10.0,SSE,6.9,-,0.00,,Overcast,160,2012-12-03 19:15:00
2:35 PM,71.6,62.6,73,30.27,10.0,South,8.1,-,0.00,,Mostly Cloudy,170,2012-12-03 19:35:00
2:55 PM,71.6,62.6,73,30.26,9.0,SSE,5.8,-,0.00,,Mostly Cloudy,160,2012-12-03 19:55:00
3:15 PM,71.6,62.6,73,30.27,10.0,South,6.9,-,0.00,,Mostly Cloudy,170,2012-12-03 20:15:00
3:35 PM,69.8,60.8,73,30.27,10.0,SE,6.9,-,0.00,,Partly Cloudy,140,2012-12-03 20:35:00
3:55 PM,69.8,60.8,73,30.27,10.0,South,5.8,-,0.00,,Clear,170,2012-12-03 20:55:00
4:15 PM,69.8,60.8,73,30.27,10.0,South,6.9,-,0.00,,Scattered Clouds,180,2012-12-03 21:15:00
4:35 PM,66.2,60.8,83,30.27,10.0,South,8.1,-,0.00,,Mostly Cloudy,180,2012-12-03 21:35:00
4:55 PM,64.4,60.8,88,30.28,10.0,South,4.6,-,0.00,,Mostly Cloudy,170,2012-12-03 21:55:00
5:15 PM,64.4,60.8,88,30.28,10.0,Calm,Calm,-,0.00,,Mostly Cloudy,0,2012-12-03 22:15:00
5:55 PM,62.6,60.8,94,30.29,8.0,Calm,Calm,-,0.00,,Mostly Cloudy,0,2012-12-03 22:55:00
6:15 PM,60.8,60.8,100,30.29,7.0,Calm,Calm,-,0.00,,Overcast,0,2012-12-03 23:15:00
6:55 PM,62.6,60.8,94,30.30,10.0,Calm,Calm,-,0.00,,Mostly Cloudy,0,2012-12-03 23:55:00
7:15 PM,62.6,59.0,88,30.30,10.0,Calm,Calm,-,0.00,,Partly Cloudy,0,2012-12-04 00:15:00
7:35 PM,59.0,57.2,94,30.30,2.0,Calm,Calm,-,0.00,,Scattered Clouds,0,2012-12-04 00:35:00
7:55 PM,60.8,59.0,94,30.30,1.2,Calm,Calm,-,0.00,,Mostly Cloudy,0,2012-12-04 00:55:00
8:15 PM,60.8,57.2,88,30.30,9.0,Calm,Calm,-,0.00,,Mostly Cloudy,0,2012-12-04 01:15:00
8:35 PM,60.8,57.2,88,30.30,8.0,Calm,Calm,-,0.00,,Overcast,0,2012-12-04 01:35:00
8:55 PM,57.2,57.2,100,30.30,1.0,Calm,Calm,-,0.00,,Overcast,0,2012-12-04 01:55:00
9:15 PM,59.0,57.2,94,30.30,7.0,Calm,Calm,-,0.00,,Overcast,0,2012-12-04 02:15:00
9:35 PM,60.8,59.0,94,30.30,9.0,Calm,Calm,-,0.00,,Overcast,0,2012-12-04 02:35:00
9:55 PM,60.8,57.2,88,30.30,9.0,Calm,Calm,-,0.00,,Overcast,0,2012-12-04 02:55:00
10:15 PM,60.8,59.0,94,30.30,10.0,Calm,Calm,-,0.00,,Overcast,0,2012-12-04 03:15:00
10:35 PM,62.6,59.0,88,30.30,10.0,Calm,Calm,-,0.00,,Overcast,0,2012-12-04 03:35:00
10:55 PM,60.8,59.0,94,30.30,10.0,Calm,Calm,-,0.00,,Overcast,0,2012-12-04 03:55:00
11:15 PM,60.8,59.0,94,30.31,8.0,Calm,Calm,-,0.00,,Overcast,0,2012-12-04 04:15:00
11:55 PM,62.6,60.8,94,30.31,10.0,Calm,Calm,-,0.00,,Overcast,0,2012-12-04 04:55:00